sensor_id;sensor_type;location;lat;lon;timestamp;P1;durP1;ratioP1;P2;durP2;ratioP2
20271;SDS011;10295;49.812;9.866;2023-07-22T00:00:50;8.47;;;3.33;;
20271;SDS011;10295;49.812;9.866;2023-07-22T00:03:17;11.20;;;3.10;;
20271;SDS011;10295;49.812;9.866;2023-07-22T00:05:45;8.63;;;3.17;;
20271;SDS011;10295;49.812;9.866;2023-07-22T00:08:12;7.20;;;3.00;;
20271;SDS011;10295;49.812;9.866;2023-07-22T00:10:40;7.93;;;3.30;;
20271;SDS011;10295;49.812;9.866;2023-07-22T00:13:08;8.17;;;3.07;;
20271;SDS011;10295;49.812;9.866;2023-07-22T00:15:35;7.90;;;3.20;;
20271;SDS011;10295;49.812;9.866;2023-07-22T00:18:02;10.57;;;3.27;;
20271;SDS011;10295;49.812;9.866;2023-07-22T00:20:29;11.23;;;3.07;;
20271;SDS011;10295;49.812;9.866;2023-07-22T00:22:56;7.53;;;3.07;;
20271;SDS011;10295;49.812;9.866;2023-07-22T00:25:24;6.77;;;2.87;;
20271;SDS011;10295;49.812;9.866;2023-07-22T00:27:51;9.40;;;3.20;;
20271;SDS011;10295;49.812;9.866;2023-07-22T00:30:18;7.87;;;2.97;;
20271;SDS011;10295;49.812;9.866;2023-07-22T00:32:45;6.73;;;3.13;;
20271;SDS011;10295;49.812;9.866;2023-07-22T00:35:12;9.13;;;3.00;;
20271;SDS011;10295;49.812;9.866;2023-07-22T00:37:40;8.43;;;3.30;;
20271;SDS011;10295;49.812;9.866;2023-07-22T00:40:07;9.67;;;2.80;;
20271;SDS011;10295;49.812;9.866;2023-07-22T00:42:38;9.33;;;2.70;;
20271;SDS011;10295;49.812;9.866;2023-07-22T00:45:06;7.00;;;2.73;;
20271;SDS011;10295;49.812;9.866;2023-07-22T00:47:34;6.50;;;2.73;;
20271;SDS011;10295;49.812;9.866;2023-07-22T00:50:02;7.07;;;2.60;;
20271;SDS011;10295;49.812;9.866;2023-07-22T00:52:29;9.40;;;3.00;;
20271;SDS011;10295;49.812;9.866;2023-07-22T00:54:57;7.43;;;2.90;;
20271;SDS011;10295;49.812;9.866;2023-07-22T00:57:24;9.83;;;2.80;;
20271;SDS011;10295;49.812;9.866;2023-07-22T00:59:52;8.53;;;2.73;;
20271;SDS011;10295;49.812;9.866;2023-07-22T01:02:19;10.10;;;2.90;;
20271;SDS011;10295;49.812;9.866;2023-07-22T01:04:47;6.63;;;2.73;;
20271;SDS011;10295;49.812;9.866;2023-07-22T01:07:15;7.70;;;3.00;;
20271;SDS011;10295;49.812;9.866;2023-07-22T01:09:43;6.70;;;2.70;;
20271;SDS011;10295;49.812;9.866;2023-07-22T01:12:10;8.37;;;2.90;;
20271;SDS011;10295;49.812;9.866;2023-07-22T01:14:39;7.40;;;2.60;;
20271;SDS011;10295;49.812;9.866;2023-07-22T01:17:07;7.30;;;2.70;;
20271;SDS011;10295;49.812;9.866;2023-07-22T01:19:34;7.10;;;2.70;;
20271;SDS011;10295;49.812;9.866;2023-07-22T01:22:05;9.63;;;2.90;;
20271;SDS011;10295;49.812;9.866;2023-07-22T01:24:35;8.23;;;3.20;;
20271;SDS011;10295;49.812;9.866;2023-07-22T01:27:03;8.57;;;2.87;;
20271;SDS011;10295;49.812;9.866;2023-07-22T01:29:34;7.63;;;2.83;;
20271;SDS011;10295;49.812;9.866;2023-07-22T01:32:01;7.30;;;2.83;;
20271;SDS011;10295;49.812;9.866;2023-07-22T01:34:28;7.20;;;2.93;;
20271;SDS011;10295;49.812;9.866;2023-07-22T01:36:57;7.23;;;3.00;;
20271;SDS011;10295;49.812;9.866;2023-07-22T01:39:26;8.27;;;2.83;;
20271;SDS011;10295;49.812;9.866;2023-07-22T01:41:53;7.43;;;2.73;;
20271;SDS011;10295;49.812;9.866;2023-07-22T01:44:21;6.70;;;2.50;;
20271;SDS011;10295;49.812;9.866;2023-07-22T01:46:48;6.23;;;3.07;;
20271;SDS011;10295;49.812;9.866;2023-07-22T01:49:15;7.77;;;3.10;;
20271;SDS011;10295;49.812;9.866;2023-07-22T01:51:42;6.67;;;2.90;;
20271;SDS011;10295;49.812;9.866;2023-07-22T01:54:10;7.47;;;2.80;;
20271;SDS011;10295;49.812;9.866;2023-07-22T01:56:37;6.97;;;2.90;;
20271;SDS011;10295;49.812;9.866;2023-07-22T01:59:05;7.10;;;2.63;;
20271;SDS011;10295;49.812;9.866;2023-07-22T02:01:32;8.97;;;3.33;;
20271;SDS011;10295;49.812;9.866;2023-07-22T02:03:59;8.23;;;3.07;;
20271;SDS011;10295;49.812;9.866;2023-07-22T02:06:27;6.13;;;2.60;;
20271;SDS011;10295;49.812;9.866;2023-07-22T02:08:56;7.37;;;3.00;;
20271;SDS011;10295;49.812;9.866;2023-07-22T02:11:23;8.23;;;3.10;;
20271;SDS011;10295;49.812;9.866;2023-07-22T02:13:50;7.27;;;2.93;;
20271;SDS011;10295;49.812;9.866;2023-07-22T02:16:17;9.80;;;3.23;;
20271;SDS011;10295;49.812;9.866;2023-07-22T02:18:45;7.83;;;3.10;;
20271;SDS011;10295;49.812;9.866;2023-07-22T02:21:13;6.07;;;2.60;;
20271;SDS011;10295;49.812;9.866;2023-07-22T02:23:40;7.97;;;2.83;;
20271;SDS011;10295;49.812;9.866;2023-07-22T02:26:08;7.13;;;2.90;;
20271;SDS011;10295;49.812;9.866;2023-07-22T02:28:35;5.80;;;2.67;;
20271;SDS011;10295;49.812;9.866;2023-07-22T02:31:02;6.43;;;2.87;;
20271;SDS011;10295;49.812;9.866;2023-07-22T02:33:33;8.77;;;3.07;;
20271;SDS011;10295;49.812;9.866;2023-07-22T02:36:01;8.03;;;3.37;;
20271;SDS011;10295;49.812;9.866;2023-07-22T02:38:28;6.50;;;2.60;;
20271;SDS011;10295;49.812;9.866;2023-07-22T02:41:01;6.93;;;3.10;;
20271;SDS011;10295;49.812;9.866;2023-07-22T02:43:28;8.20;;;2.87;;
20271;SDS011;10295;49.812;9.866;2023-07-22T02:45:55;8.27;;;3.23;;
20271;SDS011;10295;49.812;9.866;2023-07-22T02:48:23;7.30;;;2.90;;
20271;SDS011;10295;49.812;9.866;2023-07-22T02:50:50;7.77;;;2.97;;
20271;SDS011;10295;49.812;9.866;2023-07-22T02:53:18;8.33;;;3.33;;
20271;SDS011;10295;49.812;9.866;2023-07-22T02:55:45;9.77;;;2.90;;
20271;SDS011;10295;49.812;9.866;2023-07-22T02:58:12;9.07;;;3.27;;
20271;SDS011;10295;49.812;9.866;2023-07-22T03:00:39;9.40;;;2.83;;
20271;SDS011;10295;49.812;9.866;2023-07-22T03:03:06;7.83;;;3.00;;
20271;SDS011;10295;49.812;9.866;2023-07-22T03:05:34;8.47;;;3.03;;
20271;SDS011;10295;49.812;9.866;2023-07-22T03:08:01;9.53;;;3.10;;
20271;SDS011;10295;49.812;9.866;2023-07-22T03:10:29;7.80;;;3.40;;
20271;SDS011;10295;49.812;9.866;2023-07-22T03:12:56;8.07;;;3.20;;
20271;SDS011;10295;49.812;9.866;2023-07-22T03:15:24;8.30;;;3.10;;
20271;SDS011;10295;49.812;9.866;2023-07-22T03:17:53;10.90;;;3.50;;
20271;SDS011;10295;49.812;9.866;2023-07-22T03:20:22;6.90;;;2.90;;
20271;SDS011;10295;49.812;9.866;2023-07-22T03:22:50;8.53;;;3.10;;
20271;SDS011;10295;49.812;9.866;2023-07-22T03:25:19;9.47;;;3.40;;
20271;SDS011;10295;49.812;9.866;2023-07-22T03:27:46;10.60;;;3.23;;
20271;SDS011;10295;49.812;9.866;2023-07-22T03:30:14;10.10;;;3.40;;
20271;SDS011;10295;49.812;9.866;2023-07-22T03:32:42;6.50;;;3.07;;
20271;SDS011;10295;49.812;9.866;2023-07-22T03:35:09;7.57;;;3.50;;
20271;SDS011;10295;49.812;9.866;2023-07-22T03:37:38;6.73;;;3.03;;
20271;SDS011;10295;49.812;9.866;2023-07-22T03:40:06;8.40;;;3.33;;
20271;SDS011;10295;49.812;9.866;2023-07-22T03:42:47;13.17;;;3.90;;
20271;SDS011;10295;49.812;9.866;2023-07-22T03:45:15;10.33;;;3.40;;
20271;SDS011;10295;49.812;9.866;2023-07-22T03:47:43;9.37;;;3.70;;
20271;SDS011;10295;49.812;9.866;2023-07-22T03:50:11;10.67;;;3.80;;
20271;SDS011;10295;49.812;9.866;2023-07-22T03:52:38;8.70;;;3.80;;
20271;SDS011;10295;49.812;9.866;2023-07-22T03:55:06;8.57;;;3.60;;
20271;SDS011;10295;49.812;9.866;2023-07-22T03:57:33;8.30;;;3.47;;
20271;SDS011;10295;49.812;9.866;2023-07-22T04:00:02;7.63;;;3.50;;
20271;SDS011;10295;49.812;9.866;2023-07-22T04:02:30;7.57;;;3.27;;
20271;SDS011;10295;49.812;9.866;2023-07-22T04:04:58;8.13;;;3.83;;
20271;SDS011;10295;49.812;9.866;2023-07-22T04:07:25;8.40;;;3.60;;
20271;SDS011;10295;49.812;9.866;2023-07-22T04:09:52;9.97;;;3.70;;
20271;SDS011;10295;49.812;9.866;2023-07-22T04:12:19;7.60;;;3.70;;
20271;SDS011;10295;49.812;9.866;2023-07-22T04:14:46;7.50;;;3.50;;
20271;SDS011;10295;49.812;9.866;2023-07-22T04:17:13;9.53;;;3.37;;
20271;SDS011;10295;49.812;9.866;2023-07-22T04:19:41;10.00;;;4.03;;
20271;SDS011;10295;49.812;9.866;2023-07-22T04:22:09;9.47;;;3.50;;
20271;SDS011;10295;49.812;9.866;2023-07-22T04:24:36;8.30;;;3.40;;
20271;SDS011;10295;49.812;9.866;2023-07-22T04:27:04;8.60;;;3.60;;
20271;SDS011;10295;49.812;9.866;2023-07-22T04:29:31;7.90;;;3.17;;
20271;SDS011;10295;49.812;9.866;2023-07-22T04:31:58;8.63;;;3.40;;
20271;SDS011;10295;49.812;9.866;2023-07-22T04:34:29;8.60;;;3.17;;
20271;SDS011;10295;49.812;9.866;2023-07-22T04:36:56;7.13;;;3.00;;
20271;SDS011;10295;49.812;9.866;2023-07-22T04:39:24;6.47;;;2.73;;
20271;SDS011;10295;49.812;9.866;2023-07-22T04:41:51;7.57;;;2.90;;
20271;SDS011;10295;49.812;9.866;2023-07-22T04:44:18;6.67;;;2.77;;
20271;SDS011;10295;49.812;9.866;2023-07-22T04:46:46;7.90;;;2.83;;
20271;SDS011;10295;49.812;9.866;2023-07-22T04:49:13;8.07;;;2.80;;
20271;SDS011;10295;49.812;9.866;2023-07-22T04:51:45;8.10;;;2.80;;
20271;SDS011;10295;49.812;9.866;2023-07-22T04:54:12;8.53;;;3.40;;
20271;SDS011;10295;49.812;9.866;2023-07-22T04:56:40;8.33;;;3.10;;
20271;SDS011;10295;49.812;9.866;2023-07-22T04:59:07;10.93;;;3.13;;
20271;SDS011;10295;49.812;9.866;2023-07-22T05:01:35;7.53;;;2.83;;
20271;SDS011;10295;49.812;9.866;2023-07-22T05:04:03;8.93;;;3.13;;
20271;SDS011;10295;49.812;9.866;2023-07-22T05:06:31;7.80;;;3.10;;
20271;SDS011;10295;49.812;9.866;2023-07-22T05:08:59;9.37;;;3.40;;
20271;SDS011;10295;49.812;9.866;2023-07-22T05:11:26;6.63;;;3.10;;
20271;SDS011;10295;49.812;9.866;2023-07-22T05:13:53;7.77;;;3.30;;
20271;SDS011;10295;49.812;9.866;2023-07-22T05:16:20;9.67;;;3.50;;
20271;SDS011;10295;49.812;9.866;2023-07-22T05:18:48;8.30;;;3.30;;
20271;SDS011;10295;49.812;9.866;2023-07-22T05:21:15;7.73;;;3.33;;
20271;SDS011;10295;49.812;9.866;2023-07-22T05:23:42;7.50;;;3.20;;
20271;SDS011;10295;49.812;9.866;2023-07-22T05:26:09;8.03;;;3.60;;
20271;SDS011;10295;49.812;9.866;2023-07-22T05:28:37;8.03;;;3.30;;
20271;SDS011;10295;49.812;9.866;2023-07-22T05:31:04;8.93;;;3.30;;
20271;SDS011;10295;49.812;9.866;2023-07-22T05:33:31;10.83;;;3.90;;
20271;SDS011;10295;49.812;9.866;2023-07-22T05:35:59;8.63;;;3.20;;
20271;SDS011;10295;49.812;9.866;2023-07-22T05:38:26;8.50;;;3.20;;
20271;SDS011;10295;49.812;9.866;2023-07-22T05:40:53;10.23;;;3.20;;
20271;SDS011;10295;49.812;9.866;2023-07-22T05:43:21;10.93;;;2.97;;
20271;SDS011;10295;49.812;9.866;2023-07-22T05:45:48;6.83;;;3.20;;
20271;SDS011;10295;49.812;9.866;2023-07-22T05:48:15;8.27;;;3.10;;
20271;SDS011;10295;49.812;9.866;2023-07-22T05:50:43;8.17;;;3.53;;
20271;SDS011;10295;49.812;9.866;2023-07-22T05:53:10;7.45;;;3.00;;
20271;SDS011;10295;49.812;9.866;2023-07-22T05:55:37;7.00;;;2.80;;
20271;SDS011;10295;49.812;9.866;2023-07-22T05:58:04;8.50;;;2.90;;
20271;SDS011;10295;49.812;9.866;2023-07-22T06:00:32;8.40;;;3.17;;
20271;SDS011;10295;49.812;9.866;2023-07-22T06:03:00;9.38;;;2.83;;
20271;SDS011;10295;49.812;9.866;2023-07-22T06:05:27;7.70;;;2.90;;
20271;SDS011;10295;49.812;9.866;2023-07-22T06:07:54;8.57;;;3.15;;
20271;SDS011;10295;49.812;9.866;2023-07-22T06:10:23;8.07;;;3.05;;
20271;SDS011;10295;49.812;9.866;2023-07-22T06:12:51;9.07;;;2.63;;
20271;SDS011;10295;49.812;9.866;2023-07-22T06:15:19;7.22;;;2.72;;
20271;SDS011;10295;49.812;9.866;2023-07-22T06:17:46;7.85;;;3.10;;
20271;SDS011;10295;49.812;9.866;2023-07-22T06:20:13;7.40;;;3.28;;
20271;SDS011;10295;49.812;9.866;2023-07-22T06:22:41;9.40;;;3.08;;
20271;SDS011;10295;49.812;9.866;2023-07-22T06:25:08;10.98;;;3.42;;
20271;SDS011;10295;49.812;9.866;2023-07-22T06:27:36;8.48;;;3.30;;
20271;SDS011;10295;49.812;9.866;2023-07-22T06:30:03;7.90;;;3.25;;
20271;SDS011;10295;49.812;9.866;2023-07-22T06:32:30;6.90;;;3.20;;
20271;SDS011;10295;49.812;9.866;2023-07-22T06:34:58;8.27;;;3.70;;
20271;SDS011;10295;49.812;9.866;2023-07-22T06:37:25;8.32;;;3.55;;
20271;SDS011;10295;49.812;9.866;2023-07-22T06:39:52;9.75;;;3.38;;
20271;SDS011;10295;49.812;9.866;2023-07-22T06:42:19;11.38;;;3.90;;
20271;SDS011;10295;49.812;9.866;2023-07-22T06:44:47;8.02;;;3.58;;
20271;SDS011;10295;49.812;9.866;2023-07-22T06:47:14;9.23;;;3.50;;
20271;SDS011;10295;49.812;9.866;2023-07-22T06:49:41;8.93;;;3.30;;
20271;SDS011;10295;49.812;9.866;2023-07-22T06:52:12;10.80;;;3.55;;
20271;SDS011;10295;49.812;9.866;2023-07-22T06:54:39;9.82;;;3.65;;
20271;SDS011;10295;49.812;9.866;2023-07-22T06:57:07;8.50;;;3.20;;
20271;SDS011;10295;49.812;9.866;2023-07-22T06:59:34;9.30;;;2.97;;
20271;SDS011;10295;49.812;9.866;2023-07-22T07:02:02;8.65;;;3.20;;
20271;SDS011;10295;49.812;9.866;2023-07-22T07:04:30;7.75;;;3.40;;
20271;SDS011;10295;49.812;9.866;2023-07-22T07:06:58;7.10;;;2.95;;
20271;SDS011;10295;49.812;9.866;2023-07-22T07:09:26;6.57;;;2.88;;
20271;SDS011;10295;49.812;9.866;2023-07-22T07:11:53;8.20;;;2.80;;
20271;SDS011;10295;49.812;9.866;2023-07-22T07:14:23;6.72;;;2.67;;
20271;SDS011;10295;49.812;9.866;2023-07-22T07:16:51;6.30;;;2.67;;
20271;SDS011;10295;49.812;9.866;2023-07-22T07:19:18;6.90;;;2.60;;
20271;SDS011;10295;49.812;9.866;2023-07-22T07:21:45;6.95;;;2.60;;
20271;SDS011;10295;49.812;9.866;2023-07-22T07:24:12;6.82;;;2.58;;
20271;SDS011;10295;49.812;9.866;2023-07-22T07:26:40;7.20;;;2.50;;
20271;SDS011;10295;49.812;9.866;2023-07-22T07:29:08;7.90;;;2.70;;
20271;SDS011;10295;49.812;9.866;2023-07-22T07:31:35;7.38;;;2.60;;
20271;SDS011;10295;49.812;9.866;2023-07-22T07:34:02;7.28;;;2.47;;
20271;SDS011;10295;49.812;9.866;2023-07-22T07:36:30;6.43;;;2.70;;
20271;SDS011;10295;49.812;9.866;2023-07-22T07:38:57;7.93;;;2.60;;
20271;SDS011;10295;49.812;9.866;2023-07-22T07:41:24;6.55;;;2.42;;
20271;SDS011;10295;49.812;9.866;2023-07-22T07:43:51;4.82;;;2.20;;
20271;SDS011;10295;49.812;9.866;2023-07-22T07:46:22;6.80;;;2.45;;
20271;SDS011;10295;49.812;9.866;2023-07-22T07:48:50;6.80;;;2.35;;
20271;SDS011;10295;49.812;9.866;2023-07-22T07:51:19;6.85;;;2.40;;
20271;SDS011;10295;49.812;9.866;2023-07-22T07:53:46;8.15;;;3.08;;
20271;SDS011;10295;49.812;9.866;2023-07-22T07:56:14;9.65;;;2.25;;
20271;SDS011;10295;49.812;9.866;2023-07-22T07:58:41;6.60;;;2.50;;
20271;SDS011;10295;49.812;9.866;2023-07-22T08:01:08;6.50;;;2.30;;
20271;SDS011;10295;49.812;9.866;2023-07-22T08:03:36;4.82;;;2.17;;
20271;SDS011;10295;49.812;9.866;2023-07-22T08:06:04;7.13;;;2.15;;
20271;SDS011;10295;49.812;9.866;2023-07-22T08:08:32;5.88;;;2.10;;
20271;SDS011;10295;49.812;9.866;2023-07-22T08:11:03;8.02;;;2.45;;
20271;SDS011;10295;49.812;9.866;2023-07-22T08:13:31;30.65;;;5.43;;
20271;SDS011;10295;49.812;9.866;2023-07-22T08:16:01;9.88;;;2.80;;
20271;SDS011;10295;49.812;9.866;2023-07-22T08:18:29;5.47;;;2.22;;
20271;SDS011;10295;49.812;9.866;2023-07-22T08:20:56;5.85;;;2.38;;
20271;SDS011;10295;49.812;9.866;2023-07-22T08:23:24;7.15;;;2.53;;
20271;SDS011;10295;49.812;9.866;2023-07-22T08:25:52;6.22;;;2.22;;
20271;SDS011;10295;49.812;9.866;2023-07-22T08:28:19;6.80;;;2.50;;
20271;SDS011;10295;49.812;9.866;2023-07-22T08:30:47;8.20;;;2.60;;
20271;SDS011;10295;49.812;9.866;2023-07-22T08:33:15;6.70;;;2.60;;
20271;SDS011;10295;49.812;9.866;2023-07-22T08:35:56;7.05;;;2.60;;
20271;SDS011;10295;49.812;9.866;2023-07-22T08:38:23;6.78;;;2.55;;
20271;SDS011;10295;49.812;9.866;2023-07-22T08:40:50;7.05;;;2.63;;
20271;SDS011;10295;49.812;9.866;2023-07-22T08:43:19;6.93;;;2.60;;
20271;SDS011;10295;49.812;9.866;2023-07-22T08:45:47;7.00;;;2.40;;
20271;SDS011;10295;49.812;9.866;2023-07-22T08:48:16;5.35;;;2.00;;
20271;SDS011;10295;49.812;9.866;2023-07-22T08:50:53;6.78;;;2.45;;
20271;SDS011;10295;49.812;9.866;2023-07-22T08:53:21;5.32;;;2.20;;
20271;SDS011;10295;49.812;9.866;2023-07-22T08:55:49;8.88;;;2.42;;
20271;SDS011;10295;49.812;9.866;2023-07-22T08:58:17;8.73;;;2.50;;
20271;SDS011;10295;49.812;9.866;2023-07-22T09:00:44;6.70;;;2.38;;
20271;SDS011;10295;49.812;9.866;2023-07-22T09:03:12;6.25;;;2.30;;
20271;SDS011;10295;49.812;9.866;2023-07-22T09:05:39;10.30;;;2.42;;
20271;SDS011;10295;49.812;9.866;2023-07-22T09:08:07;6.45;;;2.38;;
20271;SDS011;10295;49.812;9.866;2023-07-22T09:10:35;6.60;;;2.38;;
20271;SDS011;10295;49.812;9.866;2023-07-22T09:13:02;8.15;;;2.80;;
20271;SDS011;10295;49.812;9.866;2023-07-22T09:15:30;7.97;;;3.10;;
20271;SDS011;10295;49.812;9.866;2023-07-22T09:17:58;7.00;;;2.65;;
20271;SDS011;10295;49.812;9.866;2023-07-22T09:20:26;9.27;;;2.55;;
20271;SDS011;10295;49.812;9.866;2023-07-22T09:22:54;7.85;;;2.50;;
20271;SDS011;10295;49.812;9.866;2023-07-22T09:25:40;7.35;;;2.78;;
20271;SDS011;10295;49.812;9.866;2023-07-22T09:28:07;11.45;;;2.50;;
20271;SDS011;10295;49.812;9.866;2023-07-22T09:30:36;8.13;;;2.55;;
20271;SDS011;10295;49.812;9.866;2023-07-22T09:33:05;6.05;;;2.40;;
20271;SDS011;10295;49.812;9.866;2023-07-22T09:35:49;8.32;;;2.75;;
20271;SDS011;10295;49.812;9.866;2023-07-22T09:38:23;9.00;;;2.40;;
20271;SDS011;10295;49.812;9.866;2023-07-22T09:40:51;5.70;;;2.28;;
20271;SDS011;10295;49.812;9.866;2023-07-22T09:43:18;5.88;;;2.50;;
20271;SDS011;10295;49.812;9.866;2023-07-22T09:45:46;8.50;;;2.55;;
20271;SDS011;10295;49.812;9.866;2023-07-22T09:48:14;6.38;;;2.60;;
20271;SDS011;10295;49.812;9.866;2023-07-22T09:50:42;6.18;;;2.55;;
20271;SDS011;10295;49.812;9.866;2023-07-22T09:53:09;6.95;;;2.30;;
20271;SDS011;10295;49.812;9.866;2023-07-22T09:55:41;7.18;;;2.58;;
20271;SDS011;10295;49.812;9.866;2023-07-22T09:58:08;6.28;;;2.45;;
20271;SDS011;10295;49.812;9.866;2023-07-22T10:00:37;11.20;;;2.88;;
20271;SDS011;10295;49.812;9.866;2023-07-22T10:03:08;4.90;;;1.98;;
20271;SDS011;10295;49.812;9.866;2023-07-22T10:05:39;7.65;;;2.60;;
20271;SDS011;10295;49.812;9.866;2023-07-22T10:08:08;6.85;;;2.30;;
20271;SDS011;10295;49.812;9.866;2023-07-22T10:10:39;9.25;;;2.50;;
20271;SDS011;10295;49.812;9.866;2023-07-22T10:13:07;6.70;;;2.55;;
20271;SDS011;10295;49.812;9.866;2023-07-22T10:15:34;7.10;;;2.30;;
20271;SDS011;10295;49.812;9.866;2023-07-22T10:18:02;6.05;;;2.22;;
20271;SDS011;10295;49.812;9.866;2023-07-22T10:20:31;6.63;;;2.30;;
20271;SDS011;10295;49.812;9.866;2023-07-22T10:23:03;6.63;;;2.33;;
20271;SDS011;10295;49.812;9.866;2023-07-22T10:25:30;8.18;;;2.45;;
20271;SDS011;10295;49.812;9.866;2023-07-22T10:27:58;5.95;;;2.20;;
20271;SDS011;10295;49.812;9.866;2023-07-22T10:30:25;6.38;;;2.15;;
20271;SDS011;10295;49.812;9.866;2023-07-22T10:32:52;6.53;;;2.13;;
20271;SDS011;10295;49.812;9.866;2023-07-22T10:38:17;11.30;;;2.47;;
20271;SDS011;10295;49.812;9.866;2023-07-22T10:40:50;9.65;;;2.42;;
20271;SDS011;10295;49.812;9.866;2023-07-22T10:43:19;7.95;;;2.30;;
20271;SDS011;10295;49.812;9.866;2023-07-22T10:45:51;7.55;;;2.50;;
20271;SDS011;10295;49.812;9.866;2023-07-22T10:48:19;6.53;;;2.42;;
20271;SDS011;10295;49.812;9.866;2023-07-22T10:50:50;8.45;;;2.70;;
20271;SDS011;10295;49.812;9.866;2023-07-22T11:17:06;8.80;;;2.60;;
20271;SDS011;10295;49.812;9.866;2023-07-22T11:19:37;10.95;;;2.38;;
20271;SDS011;10295;49.812;9.866;2023-07-22T11:22:05;6.65;;;2.53;;
20271;SDS011;10295;49.812;9.866;2023-07-22T11:24:33;7.95;;;2.47;;
20271;SDS011;10295;49.812;9.866;2023-07-22T11:27:03;6.38;;;2.20;;
20271;SDS011;10295;49.812;9.866;2023-07-22T11:29:30;8.75;;;2.35;;
20271;SDS011;10295;49.812;9.866;2023-07-22T11:31:58;7.35;;;2.80;;
20271;SDS011;10295;49.812;9.866;2023-07-22T11:34:25;8.20;;;2.80;;
20271;SDS011;10295;49.812;9.866;2023-07-22T11:36:53;8.10;;;2.45;;
20271;SDS011;10295;49.812;9.866;2023-07-22T11:39:21;5.97;;;2.30;;
20271;SDS011;10295;49.812;9.866;2023-07-22T11:41:49;6.40;;;2.40;;
20271;SDS011;10295;49.812;9.866;2023-07-22T11:44:17;9.13;;;2.60;;
20271;SDS011;10295;49.812;9.866;2023-07-22T11:49:28;9.60;;;2.90;;
20271;SDS011;10295;49.812;9.866;2023-07-22T11:52:17;6.38;;;2.33;;
20271;SDS011;10295;49.812;9.866;2023-07-22T11:54:44;6.30;;;2.00;;
20271;SDS011;10295;49.812;9.866;2023-07-22T11:57:21;6.70;;;2.33;;
20271;SDS011;10295;49.812;9.866;2023-07-22T11:59:49;8.48;;;3.00;;
20271;SDS011;10295;49.812;9.866;2023-07-22T12:02:20;8.38;;;2.33;;
20271;SDS011;10295;49.812;9.866;2023-07-22T12:04:56;7.40;;;2.40;;
20271;SDS011;10295;49.812;9.866;2023-07-22T12:07:27;7.05;;;2.10;;
20271;SDS011;10295;49.812;9.866;2023-07-22T12:09:56;5.40;;;1.95;;
20271;SDS011;10295;49.812;9.866;2023-07-22T12:12:33;8.57;;;2.30;;
20271;SDS011;10295;49.812;9.866;2023-07-22T12:17:43;6.60;;;2.30;;
20271;SDS011;10295;49.812;9.866;2023-07-22T12:20:11;5.85;;;2.20;;
20271;SDS011;10295;49.812;9.866;2023-07-22T12:22:38;7.75;;;2.10;;
20271;SDS011;10295;49.812;9.866;2023-07-22T12:25:06;5.90;;;2.03;;
20271;SDS011;10295;49.812;9.866;2023-07-22T12:27:33;8.05;;;2.40;;
20271;SDS011;10295;49.812;9.866;2023-07-22T12:30:00;6.38;;;2.50;;
20271;SDS011;10295;49.812;9.866;2023-07-22T12:32:29;5.45;;;2.00;;
20271;SDS011;10295;49.812;9.866;2023-07-22T12:34:56;6.60;;;2.35;;
20271;SDS011;10295;49.812;9.866;2023-07-22T12:37:23;7.10;;;2.55;;
20271;SDS011;10295;49.812;9.866;2023-07-22T12:39:51;7.13;;;2.42;;
20271;SDS011;10295;49.812;9.866;2023-07-22T12:42:19;8.18;;;2.72;;
20271;SDS011;10295;49.812;9.866;2023-07-22T12:44:46;9.88;;;2.45;;
20271;SDS011;10295;49.812;9.866;2023-07-22T12:47:13;8.63;;;2.10;;
20271;SDS011;10295;49.812;9.866;2023-07-22T12:49:40;6.65;;;2.20;;
20271;SDS011;10295;49.812;9.866;2023-07-22T12:52:08;9.10;;;2.33;;
20271;SDS011;10295;49.812;9.866;2023-07-22T12:54:35;5.72;;;2.15;;
20271;SDS011;10295;49.812;9.866;2023-07-22T12:57:03;6.95;;;2.40;;
20271;SDS011;10295;49.812;9.866;2023-07-22T12:59:30;9.57;;;2.50;;
20271;SDS011;10295;49.812;9.866;2023-07-22T13:01:58;7.65;;;2.40;;
20271;SDS011;10295;49.812;9.866;2023-07-22T13:04:25;7.45;;;2.50;;
20271;SDS011;10295;49.812;9.866;2023-07-22T13:06:52;7.65;;;2.35;;
20271;SDS011;10295;49.812;9.866;2023-07-22T13:09:20;10.05;;;2.40;;
20271;SDS011;10295;49.812;9.866;2023-07-22T13:11:47;7.03;;;2.50;;
20271;SDS011;10295;49.812;9.866;2023-07-22T13:14:14;7.40;;;2.58;;
20271;SDS011;10295;49.812;9.866;2023-07-22T13:16:43;12.77;;;2.70;;
20271;SDS011;10295;49.812;9.866;2023-07-22T13:19:11;7.95;;;2.30;;
20271;SDS011;10295;49.812;9.866;2023-07-22T13:21:38;5.80;;;2.28;;
20271;SDS011;10295;49.812;9.866;2023-07-22T13:24:05;6.63;;;2.30;;
20271;SDS011;10295;49.812;9.866;2023-07-22T13:26:33;6.38;;;2.17;;
20271;SDS011;10295;49.812;9.866;2023-07-22T13:29:05;7.13;;;2.38;;
20271;SDS011;10295;49.812;9.866;2023-07-22T13:31:32;7.78;;;2.20;;
20271;SDS011;10295;49.812;9.866;2023-07-22T13:33:59;4.82;;;2.00;;
20271;SDS011;10295;49.812;9.866;2023-07-22T13:36:26;7.50;;;1.85;;
20271;SDS011;10295;49.812;9.866;2023-07-22T13:38:54;5.95;;;2.10;;
20271;SDS011;10295;49.812;9.866;2023-07-22T13:41:21;7.57;;;2.42;;
20271;SDS011;10295;49.812;9.866;2023-07-22T13:43:48;8.57;;;2.22;;
20271;SDS011;10295;49.812;9.866;2023-07-22T13:46:15;6.93;;;2.20;;
20271;SDS011;10295;49.812;9.866;2023-07-22T13:48:42;5.32;;;1.70;;
20271;SDS011;10295;49.812;9.866;2023-07-22T13:51:09;6.47;;;2.10;;
20271;SDS011;10295;49.812;9.866;2023-07-22T13:53:37;4.55;;;1.83;;
20271;SDS011;10295;49.812;9.866;2023-07-22T13:56:04;5.25;;;1.95;;
20271;SDS011;10295;49.812;9.866;2023-07-22T13:58:31;5.32;;;2.05;;
20271;SDS011;10295;49.812;9.866;2023-07-22T14:00:58;10.63;;;2.60;;
20271;SDS011;10295;49.812;9.866;2023-07-22T14:03:27;7.57;;;1.90;;
20271;SDS011;10295;49.812;9.866;2023-07-22T14:05:54;6.38;;;2.10;;
20271;SDS011;10295;49.812;9.866;2023-07-22T14:08:23;5.63;;;2.00;;
20271;SDS011;10295;49.812;9.866;2023-07-22T14:10:50;6.80;;;2.13;;
20271;SDS011;10295;49.812;9.866;2023-07-22T14:13:17;5.45;;;1.95;;
20271;SDS011;10295;49.812;9.866;2023-07-22T14:15:44;7.22;;;1.98;;
20271;SDS011;10295;49.812;9.866;2023-07-22T14:18:12;5.50;;;2.05;;
20271;SDS011;10295;49.812;9.866;2023-07-22T14:20:43;5.05;;;1.98;;
20271;SDS011;10295;49.812;9.866;2023-07-22T14:23:11;7.95;;;2.13;;
20271;SDS011;10295;49.812;9.866;2023-07-22T14:25:39;5.75;;;2.20;;
20271;SDS011;10295;49.812;9.866;2023-07-22T14:28:06;6.72;;;1.80;;
20271;SDS011;10295;49.812;9.866;2023-07-22T14:30:33;6.68;;;1.95;;
20271;SDS011;10295;49.812;9.866;2023-07-22T14:33:00;6.72;;;2.50;;
20271;SDS011;10295;49.812;9.866;2023-07-22T14:35:28;6.07;;;2.10;;
20271;SDS011;10295;49.812;9.866;2023-07-22T14:37:55;5.88;;;2.00;;
20271;SDS011;10295;49.812;9.866;2023-07-22T14:40:25;6.10;;;2.10;;
20271;SDS011;10295;49.812;9.866;2023-07-22T14:42:52;6.03;;;1.80;;
20271;SDS011;10295;49.812;9.866;2023-07-22T14:45:19;10.30;;;2.38;;
20271;SDS011;10295;49.812;9.866;2023-07-22T14:47:46;6.72;;;2.20;;
20271;SDS011;10295;49.812;9.866;2023-07-22T14:50:15;4.68;;;1.98;;
20271;SDS011;10295;49.812;9.866;2023-07-22T14:52:43;6.93;;;2.17;;
20271;SDS011;10295;49.812;9.866;2023-07-22T14:55:10;8.02;;;2.15;;
20271;SDS011;10295;49.812;9.866;2023-07-22T14:57:37;5.80;;;2.08;;
20271;SDS011;10295;49.812;9.866;2023-07-22T15:00:05;5.53;;;2.10;;
20271;SDS011;10295;49.812;9.866;2023-07-22T15:02:33;7.63;;;2.08;;
20271;SDS011;10295;49.812;9.866;2023-07-22T15:05:00;9.73;;;2.40;;
20271;SDS011;10295;49.812;9.866;2023-07-22T15:07:27;7.43;;;2.30;;
20271;SDS011;10295;49.812;9.866;2023-07-22T15:09:56;5.93;;;2.20;;
20271;SDS011;10295;49.812;9.866;2023-07-22T15:12:24;6.95;;;2.67;;
20271;SDS011;10295;49.812;9.866;2023-07-22T15:14:51;4.97;;;2.00;;
20271;SDS011;10295;49.812;9.866;2023-07-22T15:17:18;9.07;;;2.25;;
20271;SDS011;10295;49.812;9.866;2023-07-22T15:19:49;5.68;;;2.30;;
20271;SDS011;10295;49.812;9.866;2023-07-22T15:22:16;9.35;;;2.10;;